sensor_id;sensor_type;location;lat;lon;timestamp;P1;durP1;ratioP1;P2;durP2;ratioP2
49840;SDS011;35738;49.890;5.930;2022-12-05T00:00:54;27.03;;;11.13;;
49840;SDS011;35738;49.890;5.930;2022-12-05T00:03:21;22.30;;;10.90;;
49840;SDS011;35738;49.890;5.930;2022-12-05T00:05:48;24.63;;;12.00;;
49840;SDS011;35738;49.890;5.930;2022-12-05T00:08:14;22.87;;;10.80;;
49840;SDS011;35738;49.890;5.930;2022-12-05T00:10:41;22.30;;;11.10;;
49840;SDS011;35738;49.890;5.930;2022-12-05T00:13:08;23.30;;;11.03;;
49840;SDS011;35738;49.890;5.930;2022-12-05T00:15:39;22.70;;;11.63;;
49840;SDS011;35738;49.890;5.930;2022-12-05T00:18:06;23.03;;;11.20;;
49840;SDS011;35738;49.890;5.930;2022-12-05T00:20:33;21.37;;;10.63;;
49840;SDS011;35738;49.890;5.930;2022-12-05T00:23:00;20.90;;;11.27;;
49840;SDS011;35738;49.890;5.930;2022-12-05T00:25:26;20.97;;;10.40;;
49840;SDS011;35738;49.890;5.930;2022-12-05T00:27:53;19.17;;;10.57;;
49840;SDS011;35738;49.890;5.930;2022-12-05T00:30:20;19.00;;;9.77;;
49840;SDS011;35738;49.890;5.930;2022-12-05T00:32:47;18.23;;;10.37;;
49840;SDS011;35738;49.890;5.930;2022-12-05T00:35:13;21.80;;;10.37;;
49840;SDS011;35738;49.890;5.930;2022-12-05T00:37:40;19.73;;;10.20;;
49840;SDS011;35738;49.890;5.930;2022-12-05T00:40:06;20.53;;;10.23;;
49840;SDS011;35738;49.890;5.930;2022-12-05T00:42:33;21.20;;;11.00;;
49840;SDS011;35738;49.890;5.930;2022-12-05T00:45:00;20.47;;;10.30;;
49840;SDS011;35738;49.890;5.930;2022-12-05T00:47:26;19.47;;;9.43;;
49840;SDS011;35738;49.890;5.930;2022-12-05T00:49:53;19.07;;;9.63;;
49840;SDS011;35738;49.890;5.930;2022-12-05T00:52:20;18.70;;;9.77;;
49840;SDS011;35738;49.890;5.930;2022-12-05T00:54:47;18.83;;;10.00;;
49840;SDS011;35738;49.890;5.930;2022-12-05T00:57:13;21.00;;;10.50;;
49840;SDS011;35738;49.890;5.930;2022-12-05T00:59:40;18.93;;;10.13;;
49840;SDS011;35738;49.890;5.930;2022-12-05T01:02:07;20.17;;;9.60;;
49840;SDS011;35738;49.890;5.930;2022-12-05T01:04:33;18.23;;;9.30;;
49840;SDS011;35738;49.890;5.930;2022-12-05T01:07:00;20.47;;;10.40;;
49840;SDS011;35738;49.890;5.930;2022-12-05T01:09:27;18.57;;;9.87;;
49840;SDS011;35738;49.890;5.930;2022-12-05T01:11:54;18.83;;;10.00;;
49840;SDS011;35738;49.890;5.930;2022-12-05T01:14:21;17.60;;;9.87;;
49840;SDS011;35738;49.890;5.930;2022-12-05T01:16:50;19.03;;;9.43;;
49840;SDS011;35738;49.890;5.930;2022-12-05T01:19:25;19.83;;;9.80;;
49840;SDS011;35738;49.890;5.930;2022-12-05T01:21:54;19.67;;;9.80;;
49840;SDS011;35738;49.890;5.930;2022-12-05T01:24:21;18.17;;;9.67;;
49840;SDS011;35738;49.890;5.930;2022-12-05T01:26:49;19.37;;;9.90;;
49840;SDS011;35738;49.890;5.930;2022-12-05T01:29:17;17.43;;;10.13;;
49840;SDS011;35738;49.890;5.930;2022-12-05T01:31:45;18.50;;;9.53;;
49840;SDS011;35738;49.890;5.930;2022-12-05T01:34:13;19.27;;;9.77;;
49840;SDS011;35738;49.890;5.930;2022-12-05T01:36:41;19.97;;;9.57;;
49840;SDS011;35738;49.890;5.930;2022-12-05T01:39:08;17.17;;;9.57;;
49840;SDS011;35738;49.890;5.930;2022-12-05T01:41:39;16.30;;;9.47;;
49840;SDS011;35738;49.890;5.930;2022-12-05T01:46:38;18.20;;;9.57;;
49840;SDS011;35738;49.890;5.930;2022-12-05T01:49:10;18.57;;;9.50;;
49840;SDS011;35738;49.890;5.930;2022-12-05T01:51:42;15.20;;;8.60;;
49840;SDS011;35738;49.890;5.930;2022-12-05T01:54:11;16.53;;;9.07;;
49840;SDS011;35738;49.890;5.930;2022-12-05T01:56:40;17.17;;;9.67;;
49840;SDS011;35738;49.890;5.930;2022-12-05T01:59:09;17.83;;;9.73;;
49840;SDS011;35738;49.890;5.930;2022-12-05T02:01:38;16.47;;;9.13;;
49840;SDS011;35738;49.890;5.930;2022-12-05T02:04:06;15.83;;;8.93;;
49840;SDS011;35738;49.890;5.930;2022-12-05T02:06:33;16.50;;;9.10;;
49840;SDS011;35738;49.890;5.930;2022-12-05T02:09:00;15.67;;;8.70;;
49840;SDS011;35738;49.890;5.930;2022-12-05T02:11:27;15.90;;;8.63;;
49840;SDS011;35738;49.890;5.930;2022-12-05T02:14:03;15.73;;;8.50;;
49840;SDS011;35738;49.890;5.930;2022-12-05T02:38:56;15.80;;;8.53;;
49840;SDS011;35738;49.890;5.930;2022-12-05T02:44:16;15.00;;;8.70;;
49840;SDS011;35738;49.890;5.930;2022-12-05T02:46:49;15.77;;;8.03;;
49840;SDS011;35738;49.890;5.930;2022-12-05T02:49:20;13.37;;;8.33;;
49840;SDS011;35738;49.890;5.930;2022-12-05T02:51:54;15.40;;;7.97;;
49840;SDS011;35738;49.890;5.930;2022-12-05T02:54:25;11.77;;;7.90;;
49840;SDS011;35738;49.890;5.930;2022-12-05T02:56:55;17.93;;;9.07;;
49840;SDS011;35738;49.890;5.930;2022-12-05T02:59:23;14.80;;;8.63;;
49840;SDS011;35738;49.890;5.930;2022-12-05T03:01:50;17.27;;;9.20;;
49840;SDS011;35738;49.890;5.930;2022-12-05T03:04:18;17.80;;;9.17;;
49840;SDS011;35738;49.890;5.930;2022-12-05T03:06:49;16.90;;;10.17;;
49840;SDS011;35738;49.890;5.930;2022-12-05T03:09:22;16.20;;;9.20;;
49840;SDS011;35738;49.890;5.930;2022-12-05T03:11:55;18.60;;;9.27;;
49840;SDS011;35738;49.890;5.930;2022-12-05T03:14:29;14.93;;;8.37;;
49840;SDS011;35738;49.890;5.930;2022-12-05T03:17:00;17.67;;;9.17;;
49840;SDS011;35738;49.890;5.930;2022-12-05T03:19:34;16.33;;;8.87;;
49840;SDS011;35738;49.890;5.930;2022-12-05T03:22:13;16.53;;;9.07;;
49840;SDS011;35738;49.890;5.930;2022-12-05T03:24:48;14.87;;;8.27;;
49840;SDS011;35738;49.890;5.930;2022-12-05T03:29:52;14.10;;;7.93;;
49840;SDS011;35738;49.890;5.930;2022-12-05T03:42:47;13.70;;;7.57;;
49840;SDS011;35738;49.890;5.930;2022-12-05T03:45:21;14.17;;;8.37;;
49840;SDS011;35738;49.890;5.930;2022-12-05T03:48:03;17.00;;;9.13;;
49840;SDS011;35738;49.890;5.930;2022-12-05T03:50:36;17.63;;;9.17;;
49840;SDS011;35738;49.890;5.930;2022-12-05T03:53:13;16.37;;;8.07;;
49840;SDS011;35738;49.890;5.930;2022-12-05T03:55:59;17.47;;;8.53;;
49840;SDS011;35738;49.890;5.930;2022-12-05T03:58:36;18.03;;;8.67;;
49840;SDS011;35738;49.890;5.930;2022-12-05T04:01:08;15.77;;;8.63;;
49840;SDS011;35738;49.890;5.930;2022-12-05T04:03:42;14.47;;;8.00;;
49840;SDS011;35738;49.890;5.930;2022-12-05T04:06:17;21.03;;;9.93;;
49840;SDS011;35738;49.890;5.930;2022-12-05T04:08:46;18.53;;;8.77;;
49840;SDS011;35738;49.890;5.930;2022-12-05T04:11:20;22.37;;;10.93;;
49840;SDS011;35738;49.890;5.930;2022-12-05T04:16:28;32.50;;;11.63;;
49840;SDS011;35738;49.890;5.930;2022-12-05T04:19:25;25.77;;;10.53;;
49840;SDS011;35738;49.890;5.930;2022-12-05T04:21:54;51.63;;;11.93;;
49840;SDS011;35738;49.890;5.930;2022-12-05T04:24:23;58.77;;;11.83;;
49840;SDS011;35738;49.890;5.930;2022-12-05T04:30:03;74.77;;;13.07;;
49840;SDS011;35738;49.890;5.930;2022-12-05T04:32:58;103.93;;;12.60;;
49840;SDS011;35738;49.890;5.930;2022-12-05T04:35:33;94.63;;;13.30;;
49840;SDS011;35738;49.890;5.930;2022-12-05T04:38:08;119.83;;;13.70;;
49840;SDS011;35738;49.890;5.930;2022-12-05T04:40:58;93.80;;;13.13;;
49840;SDS011;35738;49.890;5.930;2022-12-05T04:43:29;72.03;;;10.67;;
49840;SDS011;35738;49.890;5.930;2022-12-05T04:45:59;84.77;;;13.37;;
49840;SDS011;35738;49.890;5.930;2022-12-05T04:48:30;38.70;;;8.93;;
49840;SDS011;35738;49.890;5.930;2022-12-05T04:51:00;163.47;;;15.10;;
49840;SDS011;35738;49.890;5.930;2022-12-05T04:53:28;141.60;;;13.20;;
49840;SDS011;35738;49.890;5.930;2022-12-05T04:55:56;177.50;;;14.07;;
49840;SDS011;35738;49.890;5.930;2022-12-05T04:58:25;100.03;;;13.00;;
49840;SDS011;35738;49.890;5.930;2022-12-05T05:03:57;92.07;;;11.50;;
49840;SDS011;35738;49.890;5.930;2022-12-05T05:06:27;105.70;;;11.53;;
49840;SDS011;35738;49.890;5.930;2022-12-05T05:08:56;133.53;;;13.47;;
49840;SDS011;35738;49.890;5.930;2022-12-05T05:11:24;206.67;;;16.37;;
49840;SDS011;35738;49.890;5.930;2022-12-05T05:13:53;168.57;;;15.03;;
49840;SDS011;35738;49.890;5.930;2022-12-05T05:16:39;248.80;;;18.00;;
49840;SDS011;35738;49.890;5.930;2022-12-05T05:19:07;25.90;;;8.23;;
49840;SDS011;35738;49.890;5.930;2022-12-05T05:21:37;97.63;;;12.63;;
49840;SDS011;35738;49.890;5.930;2022-12-05T05:24:05;228.77;;;16.43;;
49840;SDS011;35738;49.890;5.930;2022-12-05T05:26:34;56.43;;;10.10;;
49840;SDS011;35738;49.890;5.930;2022-12-05T05:29:03;151.43;;;12.97;;
49840;SDS011;35738;49.890;5.930;2022-12-05T05:31:30;160.00;;;14.10;;
49840;SDS011;35738;49.890;5.930;2022-12-05T05:33:58;172.70;;;13.87;;
49840;SDS011;35738;49.890;5.930;2022-12-05T05:36:32;48.30;;;8.50;;
49840;SDS011;35738;49.890;5.930;2022-12-05T05:39:00;88.53;;;12.37;;
49840;SDS011;35738;49.890;5.930;2022-12-05T05:41:28;88.27;;;12.30;;
49840;SDS011;35738;49.890;5.930;2022-12-05T05:43:57;74.40;;;12.30;;
49840;SDS011;35738;49.890;5.930;2022-12-05T05:46:25;25.33;;;8.87;;
49840;SDS011;35738;49.890;5.930;2022-12-05T05:48:54;65.37;;;11.40;;
49840;SDS011;35738;49.890;5.930;2022-12-05T05:51:21;130.90;;;12.90;;
49840;SDS011;35738;49.890;5.930;2022-12-05T05:53:50;58.07;;;11.47;;
49840;SDS011;35738;49.890;5.930;2022-12-05T05:56:18;52.50;;;12.17;;
49840;SDS011;35738;49.890;5.930;2022-12-05T05:58:47;122.83;;;12.83;;
49840;SDS011;35738;49.890;5.930;2022-12-05T06:01:20;107.37;;;12.87;;
49840;SDS011;35738;49.890;5.930;2022-12-05T06:03:46;76.60;;;10.47;;
49840;SDS011;35738;49.890;5.930;2022-12-05T06:06:14;33.50;;;9.90;;
49840;SDS011;35738;49.890;5.930;2022-12-05T06:08:41;15.97;;;7.47;;
49840;SDS011;35738;49.890;5.930;2022-12-05T06:11:10;24.07;;;8.17;;
49840;SDS011;35738;49.890;5.930;2022-12-05T06:13:49;31.83;;;9.10;;
49840;SDS011;35738;49.890;5.930;2022-12-05T06:16:18;18.53;;;8.17;;
49840;SDS011;35738;49.890;5.930;2022-12-05T06:18:46;18.07;;;7.90;;
49840;SDS011;35738;49.890;5.930;2022-12-05T06:21:15;19.23;;;8.47;;
49840;SDS011;35738;49.890;5.930;2022-12-05T06:23:42;15.40;;;7.03;;
49840;SDS011;35738;49.890;5.930;2022-12-05T06:26:13;20.47;;;8.90;;
49840;SDS011;35738;49.890;5.930;2022-12-05T06:28:41;15.37;;;7.73;;
49840;SDS011;35738;49.890;5.930;2022-12-05T06:31:12;17.20;;;8.47;;
49840;SDS011;35738;49.890;5.930;2022-12-05T06:33:41;14.63;;;7.67;;
49840;SDS011;35738;49.890;5.930;2022-12-05T06:36:09;15.83;;;7.33;;
49840;SDS011;35738;49.890;5.930;2022-12-05T06:38:37;16.67;;;7.37;;
49840;SDS011;35738;49.890;5.930;2022-12-05T06:41:08;16.27;;;7.90;;
49840;SDS011;35738;49.890;5.930;2022-12-05T06:43:36;14.60;;;7.00;;
49840;SDS011;35738;49.890;5.930;2022-12-05T06:46:03;13.00;;;6.97;;
49840;SDS011;35738;49.890;5.930;2022-12-05T06:48:31;12.70;;;6.93;;
49840;SDS011;35738;49.890;5.930;2022-12-05T06:50:58;10.63;;;6.70;;
49840;SDS011;35738;49.890;5.930;2022-12-05T06:53:25;12.90;;;6.57;;
49840;SDS011;35738;49.890;5.930;2022-12-05T06:55:56;13.97;;;6.90;;
49840;SDS011;35738;49.890;5.930;2022-12-05T06:58:22;14.67;;;7.13;;
49840;SDS011;35738;49.890;5.930;2022-12-05T07:00:49;38.83;;;23.03;;
49840;SDS011;35738;49.890;5.930;2022-12-05T07:03:35;24.17;;;12.20;;
49840;SDS011;35738;49.890;5.930;2022-12-05T07:06:02;25.63;;;9.30;;
49840;SDS011;35738;49.890;5.930;2022-12-05T07:08:31;24.77;;;10.80;;
49840;SDS011;35738;49.890;5.930;2022-12-05T07:10:58;24.77;;;10.70;;
49840;SDS011;35738;49.890;5.930;2022-12-05T07:13:25;33.20;;;9.90;;
49840;SDS011;35738;49.890;5.930;2022-12-05T07:15:51;28.97;;;10.10;;
49840;SDS011;35738;49.890;5.930;2022-12-05T07:18:18;29.23;;;10.43;;
49840;SDS011;35738;49.890;5.930;2022-12-05T07:20:54;33.63;;;10.23;;
49840;SDS011;35738;49.890;5.930;2022-12-05T07:23:39;41.33;;;9.90;;
49840;SDS011;35738;49.890;5.930;2022-12-05T07:26:06;32.93;;;8.70;;
49840;SDS011;35738;49.890;5.930;2022-12-05T07:28:34;55.60;;;13.60;;
49840;SDS011;35738;49.890;5.930;2022-12-05T07:31:03;33.03;;;11.97;;
49840;SDS011;35738;49.890;5.930;2022-12-05T07:33:31;51.87;;;14.47;;
49840;SDS011;35738;49.890;5.930;2022-12-05T07:36:02;38.30;;;10.93;;
49840;SDS011;35738;49.890;5.930;2022-12-05T07:38:34;63.07;;;12.10;;
49840;SDS011;35738;49.890;5.930;2022-12-05T07:41:13;84.33;;;10.57;;
49840;SDS011;35738;49.890;5.930;2022-12-05T07:43:44;38.87;;;8.43;;
49840;SDS011;35738;49.890;5.930;2022-12-05T07:46:11;55.43;;;9.73;;
49840;SDS011;35738;49.890;5.930;2022-12-05T07:48:38;53.77;;;9.93;;
49840;SDS011;35738;49.890;5.930;2022-12-05T07:51:06;65.93;;;13.53;;
49840;SDS011;35738;49.890;5.930;2022-12-05T07:53:34;58.47;;;13.37;;
49840;SDS011;35738;49.890;5.930;2022-12-05T07:56:03;38.30;;;10.40;;
49840;SDS011;35738;49.890;5.930;2022-12-05T07:58:32;62.33;;;10.20;;
49840;SDS011;35738;49.890;5.930;2022-12-05T08:01:15;44.63;;;9.47;;
49840;SDS011;35738;49.890;5.930;2022-12-05T08:03:44;50.60;;;9.93;;
49840;SDS011;35738;49.890;5.930;2022-12-05T08:06:14;63.03;;;10.47;;
49840;SDS011;35738;49.890;5.930;2022-12-05T08:08:43;35.73;;;8.73;;
49840;SDS011;35738;49.890;5.930;2022-12-05T08:11:12;36.13;;;7.93;;
49840;SDS011;35738;49.890;5.930;2022-12-05T08:13:41;47.63;;;9.50;;
49840;SDS011;35738;49.890;5.930;2022-12-05T08:16:10;63.70;;;9.40;;
49840;SDS011;35738;49.890;5.930;2022-12-05T08:18:39;60.80;;;10.63;;
49840;SDS011;35738;49.890;5.930;2022-12-05T08:21:07;63.83;;;10.30;;
49840;SDS011;35738;49.890;5.930;2022-12-05T08:23:35;65.13;;;9.63;;
49840;SDS011;35738;49.890;5.930;2022-12-05T08:26:25;39.70;;;8.90;;
49840;SDS011;35738;49.890;5.930;2022-12-05T08:29:18;54.87;;;9.30;;
49840;SDS011;35738;49.890;5.930;2022-12-05T08:31:42;70.60;;;9.13;;
49840;SDS011;35738;49.890;5.930;2022-12-05T08:34:15;39.30;;;8.33;;
49840;SDS011;35738;49.890;5.930;2022-12-05T08:36:43;49.07;;;9.17;;
49840;SDS011;35738;49.890;5.930;2022-12-05T08:39:11;47.60;;;11.10;;
49840;SDS011;35738;49.890;5.930;2022-12-05T08:41:41;46.70;;;12.40;;
49840;SDS011;35738;49.890;5.930;2022-12-05T08:44:09;77.17;;;12.90;;
49840;SDS011;35738;49.890;5.930;2022-12-05T08:46:36;49.50;;;11.77;;
49840;SDS011;35738;49.890;5.930;2022-12-05T08:49:04;45.23;;;11.37;;
49840;SDS011;35738;49.890;5.930;2022-12-05T08:51:31;73.60;;;11.47;;
49840;SDS011;35738;49.890;5.930;2022-12-05T08:54:00;63.30;;;9.13;;
49840;SDS011;35738;49.890;5.930;2022-12-05T08:56:27;71.33;;;10.47;;
49840;SDS011;35738;49.890;5.930;2022-12-05T08:58:54;60.30;;;12.87;;
49840;SDS011;35738;49.890;5.930;2022-12-05T09:01:30;79.17;;;12.53;;
49840;SDS011;35738;49.890;5.930;2022-12-05T09:03:59;53.97;;;8.83;;
49840;SDS011;35738;49.890;5.930;2022-12-05T09:06:26;95.37;;;9.20;;
49840;SDS011;35738;49.890;5.930;2022-12-05T09:08:55;68.67;;;9.50;;
49840;SDS011;35738;49.890;5.930;2022-12-05T09:11:24;38.87;;;7.50;;
49840;SDS011;35738;49.890;5.930;2022-12-05T09:13:56;43.73;;;7.60;;
49840;SDS011;35738;49.890;5.930;2022-12-05T09:16:25;45.87;;;8.87;;
49840;SDS011;35738;49.890;5.930;2022-12-05T09:19:04;34.03;;;7.37;;
49840;SDS011;35738;49.890;5.930;2022-12-05T09:21:32;21.27;;;6.53;;
49840;SDS011;35738;49.890;5.930;2022-12-05T09:23:58;26.37;;;6.07;;
49840;SDS011;35738;49.890;5.930;2022-12-05T09:26:26;24.13;;;7.03;;
49840;SDS011;35738;49.890;5.930;2022-12-05T09:28:55;21.83;;;6.07;;
49840;SDS011;35738;49.890;5.930;2022-12-05T09:31:23;21.37;;;6.00;;
49840;SDS011;35738;49.890;5.930;2022-12-05T09:33:52;8.80;;;4.43;;
49840;SDS011;35738;49.890;5.930;2022-12-05T09:36:20;19.60;;;5.00;;
49840;SDS011;35738;49.890;5.930;2022-12-05T09:38:51;7.07;;;3.90;;
49840;SDS011;35738;49.890;5.930;2022-12-05T09:46:59;5.90;;;4.17;;
49840;SDS011;35738;49.890;5.930;2022-12-05T09:49:39;8.00;;;3.93;;
49840;SDS011;35738;49.890;5.930;2022-12-05T09:52:15;3.30;;;3.00;;
49840;SDS011;35738;49.890;5.930;2022-12-05T09:54:54;5.77;;;4.10;;
49840;SDS011;35738;49.890;5.930;2022-12-05T09:57:25;6.03;;;3.90;;
49840;SDS011;35738;49.890;5.930;2022-12-05T09:59:59;6.83;;;4.47;;
49840;SDS011;35738;49.890;5.930;2022-12-05T10:02:32;5.63;;;4.10;;
49840;SDS011;35738;49.890;5.930;2022-12-05T10:05:10;8.43;;;4.60;;
49840;SDS011;35738;49.890;5.930;2022-12-05T10:10:24;5.77;;;4.23;;
49840;SDS011;35738;49.890;5.930;2022-12-05T10:16:01;5.50;;;3.43;;
49840;SDS011;35738;49.890;5.930;2022-12-05T10:18:34;4.83;;;4.17;;
49840;SDS011;35738;49.890;5.930;2022-12-05T10:26:28;7.00;;;5.57;;
49840;SDS011;35738;49.890;5.930;2022-12-05T10:29:00;7.87;;;5.17;;
49840;SDS011;35738;49.890;5.930;2022-12-05T10:31:48;7.67;;;4.77;;
49840;SDS011;35738;49.890;5.930;2022-12-05T10:37:03;6.00;;;4.33;;
49840;SDS011;35738;49.890;5.930;2022-12-05T10:39:39;11.90;;;5.70;;
49840;SDS011;35738;49.890;5.930;2022-12-05T10:42:06;8.43;;;4.87;;
49840;SDS011;35738;49.890;5.930;2022-12-05T10:44:40;8.27;;;5.23;;
49840;SDS011;35738;49.890;5.930;2022-12-05T10:47:07;6.33;;;4.77;;
49840;SDS011;35738;49.890;5.930;2022-12-05T10:49:35;6.40;;;4.60;;
49840;SDS011;35738;49.890;5.930;2022-12-05T10:52:03;6.37;;;4.30;;
49840;SDS011;35738;49.890;5.930;2022-12-05T10:54:41;5.73;;;4.27;;
49840;SDS011;35738;49.890;5.930;2022-12-05T10:57:22;6.90;;;4.30;;
49840;SDS011;35738;49.890;5.930;2022-12-05T10:59:51;6.30;;;4.47;;
49840;SDS011;35738;49.890;5.930;2022-12-05T11:02:24;7.23;;;5.10;;
49840;SDS011;35738;49.890;5.930;2022-12-05T11:04:53;5.33;;;4.10;;
49840;SDS011;35738;49.890;5.930;2022-12-05T11:07:31;4.97;;;3.90;;
49840;SDS011;35738;49.890;5.930;2022-12-05T11:09:59;7.33;;;4.80;;
49840;SDS011;35738;49.890;5.930;2022-12-05T11:12:37;18.33;;;5.30;;
49840;SDS011;35738;49.890;5.930;2022-12-05T11:15:18;12.23;;;5.50;;
49840;SDS011;35738;49.890;5.930;2022-12-05T11:17:50;8.90;;;4.93;;
49840;SDS011;35738;49.890;5.930;2022-12-05T11:22:49;10.50;;;6.07;;
49840;SDS011;35738;49.890;5.930;2022-12-05T11:27:53;48.33;;;7.53;;
49840;SDS011;35738;49.890;5.930;2022-12-05T11:30:27;18.30;;;7.27;;
49840;SDS011;35738;49.890;5.930;2022-12-05T11:33:17;13.73;;;6.87;;
49840;SDS011;35738;49.890;5.930;2022-12-05T11:35:46;18.67;;;7.27;;
49840;SDS011;35738;49.890;5.930;2022-12-05T11:38:13;22.80;;;6.63;;
49840;SDS011;35738;49.890;5.930;2022-12-05T11:43:28;45.30;;;7.63;;
49840;SDS011;35738;49.890;5.930;2022-12-05T11:46:07;16.73;;;8.83;;
49840;SDS011;35738;49.890;5.930;2022-12-05T11:54:28;17.87;;;6.70;;
49840;SDS011;35738;49.890;5.930;2022-12-05T11:57:49;16.37;;;7.20;;
49840;SDS011;35738;49.890;5.930;2022-12-05T12:11:22;18.57;;;6.30;;
49840;SDS011;35738;49.890;5.930;2022-12-05T12:14:10;12.80;;;6.70;;
49840;SDS011;35738;49.890;5.930;2022-12-05T12:22:03;15.23;;;6.47;;
49840;SDS011;35738;49.890;5.930;2022-12-05T12:33:33;10.00;;;4.87;;
49840;SDS011;35738;49.890;5.930;2022-12-05T12:36:18;25.50;;;6.13;;
49840;SDS011;35738;49.890;5.930;2022-12-05T12:50:12;31.03;;;7.20;;
49840;SDS011;35738;49.890;5.930;2022-12-05T13:01:14;50.50;;;9.37;;
49840;SDS011;35738;49.890;5.930;2022-12-05T13:04:03;25.20;;;6.57;;
49840;SDS011;35738;49.890;5.930;2022-12-05T13:11:51;50.63;;;8.23;;
49840;SDS011;35738;49.890;5.930;2022-12-05T13:14:21;78.03;;;9.20;;
49840;SDS011;35738;49.890;5.930;2022-12-05T13:16:51;54.47;;;8.80;;
49840;SDS011;35738;49.890;5.930;2022-12-05T13:19:24;38.33;;;6.93;;
49840;SDS011;35738;49.890;5.930;2022-12-05T13:22:02;32.40;;;6.07;;
49840;SDS011;35738;49.890;5.930;2022-12-05T13:24:31;27.80;;;7.83;;
49840;SDS011;35738;49.890;5.930;2022-12-05T13:26:58;23.03;;;5.73;;
49840;SDS011;35738;49.890;5.930;2022-12-05T13:29:29;22.33;;;6.03;;
49840;SDS011;35738;49.890;5.930;2022-12-05T13:32:00;64.73;;;8.87;;
49840;SDS011;35738;49.890;5.930;2022-12-05T13:36:55;109.07;;;10.13;;
49840;SDS011;35738;49.890;5.930;2022-12-05T13:39:52;172.77;;;11.37;;
49840;SDS011;35738;49.890;5.930;2022-12-05T13:42:39;166.50;;;11.03;;
49840;SDS011;35738;49.890;5.930;2022-12-05T13:45:17;106.17;;;8.80;;
49840;SDS011;35738;49.890;5.930;2022-12-05T13:47:54;102.27;;;10.30;;
49840;SDS011;35738;49.890;5.930;2022-12-05T13:55:53;49.70;;;6.23;;
49840;SDS011;35738;49.890;5.930;2022-12-05T14:00:49;196.33;;;12.37;;
49840;SDS011;35738;49.890;5.930;2022-12-05T14:05:52;178.73;;;11.60;;
49840;SDS011;35738;49.890;5.930;2022-12-05T14:16:59;146.10;;;12.60;;
49840;SDS011;35738;49.890;5.930;2022-12-05T14:19:05;191.67;;;41.83;;
49840;SDS011;35738;49.890;5.930;2022-12-05T14:32:46;236.10;;;16.27;;
49840;SDS011;35738;49.890;5.930;2022-12-05T14:35:18;224.80;;;15.03;;
49840;SDS011;35738;49.890;5.930;2022-12-05T14:37:51;244.63;;;14.57;;
49840;SDS011;35738;49.890;5.930;2022-12-05T14:43:16;254.10;;;15.17;;
49840;SDS011;35738;49.890;5.930;2022-12-05T14:54:07;281.53;;;15.23;;
49840;SDS011;35738;49.890;5.930;2022-12-05T15:01:55;310.47;;;15.63;;
49840;SDS011;35738;49.890;5.930;2022-12-05T15:07:09;296.67;;;16.13;;
49840;SDS011;35738;49.890;5.930;2022-12-05T15:12:15;282.47;;;14.93;;
49840;SDS011;35738;49.890;5.930;2022-12-05T15:14:52;308.60;;;16.37;;
49840;SDS011;35738;49.890;5.930;2022-12-05T15:17:25;207.13;;;13.40;;
49840;SDS011;35738;49.890;5.930;2022-12-05T15:19:56;240.30;;;13.90;;
49840;SDS011;35738;49.890;5.930;2022-12-05T15:22:29;247.23;;;13.57;;
49840;SDS011;35738;49.890;5.930;2022-12-05T15:28:02;210.27;;;13.27;;
49840;SDS011;35738;49.890;5.930;2022-12-05T15:30:31;197.70;;;12.83;;
49840;SDS011;35738;49.890;5.930;2022-12-05T15:33:01;257.70;;;16.10;;
49840;SDS011;35738;49.890;5.930;2022-12-05T15:35:29;191.97;;;12.87;;
49840;SDS011;35738;49.890;5.930;2022-12-05T15:38:00;272.33;;;15.17;;
49840;SDS011;35738;49.890;5.930;2022-12-05T15:40:38;208.13;;;16.53;;
49840;SDS011;35738;49.890;5.930;2022-12-05T15:43:25;243.20;;;16.43;;
49840;SDS011;35738;49.890;5.930;2022-12-05T15:48:53;150.20;;;10.87;;
49840;SDS011;35738;49.890;5.930;2022-12-05T15:51:40;225.93;;;14.00;;
49840;SDS011;35738;49.890;5.930;2022-12-05T15:54:13;332.83;;;17.13;;
49840;SDS011;35738;49.890;5.930;2022-12-05T15:56:57;256.03;;;15.80;;
49840;SDS011;35738;49.890;5.930;2022-12-05T15:59:35;265.13;;;16.00;;
49840;SDS011;35738;49.890;5.930;2022-12-05T16:02:19;229.07;;;13.63;;
49840;SDS011;35738;49.890;5.930;2022-12-05T16:04:51;346.57;;;18.47;;
49840;SDS011;35738;49.890;5.930;2022-12-05T16:07:21;254.50;;;15.63;;
49840;SDS011;35738;49.890;5.930;2022-12-05T16:09:54;379.83;;;18.00;;
49840;SDS011;35738;49.890;5.930;2022-12-05T16:12:24;314.37;;;18.20;;
49840;SDS011;35738;49.890;5.930;2022-12-05T16:14:57;569.63;;;26.83;;
49840;SDS011;35738;49.890;5.930;2022-12-05T16:17:29;398.40;;;24.53;;
49840;SDS011;35738;49.890;5.930;2022-12-05T16:20:37;282.80;;;17.87;;
49840;SDS011;35738;49.890;5.930;2022-12-05T16:23:05;254.23;;;13.77;;
49840;SDS011;35738;49.890;5.930;2022-12-05T16:28:56;819.30;;;34.73;;
49840;SDS011;35738;49.890;5.930;2022-12-05T16:31:24;569.67;;;26.07;;
49840;SDS011;35738;49.890;5.930;2022-12-05T16:33:58;328.87;;;18.07;;
49840;SDS011;35738;49.890;5.930;2022-12-05T16:36:26;277.23;;;16.43;;
49840;SDS011;35738;49.890;5.930;2022-12-05T16:39:03;251.17;;;16.07;;
49840;SDS011;35738;49.890;5.930;2022-12-05T16:41:35;294.47;;;17.30;;
49840;SDS011;35738;49.890;5.930;2022-12-05T16:44:04;414.53;;;19.37;;
49840;SDS011;35738;49.890;5.930;2022-12-05T16:46:51;400.63;;;19.37;;
49840;SDS011;35738;49.890;5.930;2022-12-05T16:49:32;264.27;;;15.50;;
49840;SDS011;35738;49.890;5.930;2022-12-05T16:52:10;597.53;;;27.50;;
49840;SDS011;35738;49.890;5.930;2022-12-05T16:54:40;380.33;;;19.17;;
49840;SDS011;35738;49.890;5.930;2022-12-05T16:57:08;131.20;;;11.70;;
49840;SDS011;35738;49.890;5.930;2022-12-05T16:59:37;80.00;;;8.93;;
49840;SDS011;35738;49.890;5.930;2022-12-05T17:02:06;195.60;;;12.43;;
49840;SDS011;35738;49.890;5.930;2022-12-05T17:04:37;226.27;;;14.20;;
49840;SDS011;35738;49.890;5.930;2022-12-05T17:07:04;418.13;;;20.03;;
49840;SDS011;35738;49.890;5.930;2022-12-05T17:09:31;240.47;;;14.43;;
49840;SDS011;35738;49.890;5.930;2022-12-05T17:12:00;91.40;;;9.17;;
49840;SDS011;35738;49.890;5.930;2022-12-05T17:14:32;91.67;;;8.97;;
49840;SDS011;35738;49.890;5.930;2022-12-05T17:16:59;87.93;;;9.40;;
49840;SDS011;35738;49.890;5.930;2022-12-05T17:19:28;272.30;;;17.00;;
49840;SDS011;35738;49.890;5.930;2022-12-05T17:21:55;570.83;;;24.90;;
49840;SDS011;35738;49.890;5.930;2022-12-05T17:24:22;370.83;;;18.23;;
49840;SDS011;35738;49.890;5.930;2022-12-05T17:26:50;222.03;;;13.90;;
49840;SDS011;35738;49.890;5.930;2022-12-05T17:29:16;284.07;;;14.40;;
49840;SDS011;35738;49.890;5.930;2022-12-05T17:31:43;276.33;;;15.90;;
49840;SDS011;35738;49.890;5.930;2022-12-05T17:34:14;252.47;;;14.87;;
49840;SDS011;35738;49.890;5.930;2022-12-05T17:36:42;297.27;;;16.90;;
49840;SDS011;35738;49.890;5.930;2022-12-05T17:39:10;374.27;;;18.33;;
49840;SDS011;35738;49.890;5.930;2022-12-05T17:41:36;360.60;;;18.47;;
49840;SDS011;35738;49.890;5.930;2022-12-05T17:44:03;273.17;;;14.27;;
49840;SDS011;35738;49.890;5.930;2022-12-05T17:46:30;227.73;;;13.97;;
49840;SDS011;35738;49.890;5.930;2022-12-05T17:48:57;471.97;;;22.07;;
49840;SDS011;35738;49.890;5.930;2022-12-05T17:51:24;426.10;;;18.20;;
49840;SDS011;35738;49.890;5.930;2022-12-05T17:53:51;208.77;;;11.93;;
49840;SDS011;35738;49.890;5.930;2022-12-05T17:56:19;226.40;;;13.27;;
49840;SDS011;35738;49.890;5.930;2022-12-05T17:58:46;442.73;;;21.23;;
49840;SDS011;35738;49.890;5.930;2022-12-05T18:01:14;43.97;;;5.80;;
49840;SDS011;35738;49.890;5.930;2022-12-05T18:03:42;192.57;;;18.87;;
49840;SDS011;35738;49.890;5.930;2022-12-05T18:06:10;294.33;;;21.20;;